F/V Anthineas — FQVN — position and weather

sailwx.info

Track history (hours):
 
Tides and Currents Weather Stations Pressure Air Temp Water Temp Dewpoint Dewpoint Depression Visibility Wind Speed Wind Dir Waves Ship Positions

F/V Anthineas

Last reported at 2018-Feb-22 23:51 UTC. Time now 2018-Feb-23 04:59 UTC.
Position N 45°57' W 001°38'.

Length 23 m.

Type: Fishing. MMSI: 228367000.

Date/timePositionNaut miles runAvg speedWind from/ knotsBaromVisibWave heightAir tempDewpointWater temp
2018-Feb-22 23:51N 45°57' W 001°38'3 8.2
2018-Feb-22 23:29N 46°00' W 001°39'4 8.2
2018-Feb-22 23:00N 46°04' W 001°40'4 8.2
2018-Feb-22 22:29N 46°08' W 001°41'4 8.3
2018-Feb-22 22:00N 46°12' W 001°43'4 8.4
2018-Feb-22 21:31N 46°16' W 001°44'4 8.5
2018-Feb-22 21:01N 46°20' W 001°45'4 8.5
2018-Feb-22 20:31N 46°25' W 001°46'4 8.5
2018-Feb-22 20:01N 46°29' W 001°47'1 2.1
2018-Feb-22 19:31N 46°30' W 001°47'0 0.3
2018-Feb-22 19:01N 46°30' W 001°47'2 4.0
2018-Feb-22 18:31N 46°28' W 001°49'510.2
2018-Feb-22 18:00N 46°27' W 001°56'510.1
2018-Feb-22 17:30N 46°25' W 002°03'510.1
2018-Feb-22 17:01N 46°24' W 002°10'7 0.7
2018-Feb-22 07:34N 46°20' W 002°19'1 4.2
2018-Feb-22 07:21N 46°19' W 002°18'4 5.6
2018-Feb-22 06:43N 46°21' W 002°14'4 9.1
2018-Feb-22 06:14N 46°23' W 002°08'3 9.2
2018-Feb-22 05:57N 46°24' W 002°04'4 9.1
2018-Feb-22 05:31N 46°25' W 001°59'5 9.1
2018-Feb-22 05:01N 46°27' W 001°53'4 9.0
2018-Feb-22 04:31N 46°29' W 001°47'1 2.0
2018-Feb-22 04:00N 46°30' W 001°47'0 0.0
2018-Feb-21 12:03N 46°30' W 001°47'0 0.0
2018-Feb-21 12:00N 46°30' W 001°47'0 0.0
2018-Feb-21 11:30N 46°30' W 001°47'0 0.0
2018-Feb-21 11:00N 46°30' W 001°47'0 0.0
2018-Feb-21 10:30N 46°30' W 001°47'0 0.0
2018-Feb-21 10:00N 46°30' W 001°47'0 0.0
2018-Feb-21 09:30N 46°30' W 001°47'0 0.0
2018-Feb-21 09:00N 46°30' W 001°47'0 0.0
2018-Feb-21 08:30N 46°30' W 001°47'0 0.0
2018-Feb-21 08:00N 46°30' W 001°47'0 0.0
2018-Feb-20 18:52N 46°30' W 001°47'0 0.3
2018-Feb-20 18:30N 46°30' W 001°47'0 0.4
2018-Feb-20 18:00N 46°30' W 001°47'0 0.0
2018-Feb-20 17:30N 46°30' W 001°47'1 1.0
2018-Feb-20 17:00N 46°29' W 001°47'4 7.9
2018-Feb-20 16:30N 46°27' W 001°52'4 8.6
2018-Feb-20 16:00N 46°25' W 001°58'4 8.7
2018-Feb-20 15:30N 46°24' W 002°04'4 8.9
2018-Feb-20 15:00N 46°23' W 002°10'4 8.8
2018-Feb-20 14:30N 46°21' W 002°16'5 0.8
2018-Feb-20 07:53N 46°16' W 002°17'6 1.2
2018-Feb-20 02:43N 46°22' W 002°17'0 0.0
2018-Feb-20 01:25N 46°22' W 002°17'4 3.0
2018-Feb-20 00:10N 46°19' W 002°16'1 3.2
2018-Feb-19 23:58N 46°19' W 002°15'1 2.8
2018-Feb-19 23:28N 46°20' W 002°15'2 3.3
2018-Feb-19 22:49N 46°22' W 002°17'2 1.8
2018-Feb-19 21:41N 46°24' W 002°18'3 1.2
2018-Feb-19 19:18N 46°26' W 002°21'3 0.8
2018-Feb-19 15:42N 46°28' W 002°22'1 3.5
2018-Feb-19 15:30N 46°28' W 002°23'3 1.3
2018-Feb-19 13:00N 46°26' W 002°20'10 0.7
2018-Feb-18 23:12N 46°17' W 002°15'1 3.3
2018-Feb-18 22:56N 46°16' W 002°15'7 0.4
2018-Feb-18 04:33N 46°18' W 002°05'0 7.1
2018-Feb-18 04:30N 46°18' W 002°05'4 7.1
2018-Feb-18 04:00N 46°20' W 002°01'4 7.0
2018-Feb-18 03:30N 46°23' W 001°57'3 6.9
2018-Feb-18 03:00N 46°25' W 001°53'3 6.7
2018-Feb-18 02:30N 46°27' W 001°50'3 6.0
2018-Feb-18 02:00N 46°30' W 001°48'0 0.6
2018-Feb-18 01:30N 46°30' W 001°47'2 3.9
2018-Feb-18 01:00N 46°28' W 001°48'4 8.9
2018-Feb-18 00:30N 46°25' W 001°53'4 8.8
2018-Feb-18 00:00N 46°23' W 001°58'4 8.6
2018-Feb-17 23:29N 46°20' W 002°03'4 8.5
2018-Feb-17 23:00N 46°18' W 002°08'4 0.1
2018-Feb-16 04:42N 46°19' W 002°02'2 8.9
2018-Feb-16 04:30N 46°20' W 002°01'4 8.8
2018-Feb-16 04:00N 46°23' W 001°56'4 8.8
2018-Feb-16 03:30N 46°26' W 001°51'4 8.3
2018-Feb-16 03:00N 46°29' W 001°47'1 1.5
2018-Feb-16 02:30N 46°30' W 001°47'0 0.3
2018-Feb-16 02:00N 46°30' W 001°47'3 6.9
2018-Feb-16 01:30N 46°27' W 001°50'5 9.2
2018-Feb-16 01:00N 46°24' W 001°55'5 9.3
2018-Feb-16 00:30N 46°21' W 001°60'13 1.3
2018-Feb-15 14:08N 46°18' W 002°18'7 0.9
2018-Feb-15 07:05N 46°21' W 002°10'1 9.1
2018-Feb-15 07:00N 46°21' W 002°09'4 9.1
2018-Feb-15 06:30N 46°23' W 002°03'5 9.1
2018-Feb-15 06:00N 46°25' W 001°57'5 9.0
2018-Feb-15 05:30N 46°27' W 001°51'4 7.2
2018-Feb-15 05:00N 46°30' W 001°48'0 0.0
2018-Feb-14 10:33N 46°30' W 001°47'0 0.1
2018-Feb-14 10:30N 46°30' W 001°47'0 0.0
2018-Feb-14 10:00N 46°30' W 001°47'0 0.0
2018-Feb-14 09:30N 46°30' W 001°47'0 0.0
2018-Feb-14 09:00N 46°30' W 001°47'0 0.0
2018-Feb-14 08:31N 46°30' W 001°47'0 0.0
2018-Feb-13 12:30N 46°30' W 001°47'0 0.1
2018-Feb-13 12:00N 46°30' W 001°47'0 0.4
2018-Feb-13 11:30N 46°30' W 001°47'0 0.0
2018-Feb-13 11:00N 46°30' W 001°47'2 3.9
2018-Feb-13 10:30N 46°28' W 001°48'4 8.5
2018-Feb-13 10:00N 46°25' W 001°52'3 7.0
2018-Feb-13 09:31N 46°23' W 001°56'4 8.3
2018-Feb-13 09:00N 46°20' W 002°00'  
Track history (hours):
 
Tides and Currents Weather Stations Pressure Air Temp Water Temp Dewpoint Dewpoint Depression Visibility Wind Speed Wind Dir Waves Ship Positions

F/V Anthineas

Last reported at 2018-Feb-22 23:51 UTC. Time now 2018-Feb-23 04:59 UTC.
Position N 45°57' W 001°38'.

Length 23 m.

Type: Fishing. MMSI: 228367000.

Date/timePositionNaut miles runAvg speedWind from/ knotsBaromVisibWave heightAir tempDewpointWater temp
2018-Feb-22 23:51N 45°57' W 001°38'3 8.2
2018-Feb-22 23:29N 46°00' W 001°39'4 8.2
2018-Feb-22 23:00N 46°04' W 001°40'4 8.2
2018-Feb-22 22:29N 46°08' W 001°41'4 8.3
2018-Feb-22 22:00N 46°12' W 001°43'4 8.4
2018-Feb-22 21:31N 46°16' W 001°44'4 8.5
2018-Feb-22 21:01N 46°20' W 001°45'4 8.5
2018-Feb-22 20:31N 46°25' W 001°46'4 8.5
2018-Feb-22 20:01N 46°29' W 001°47'1 2.1
2018-Feb-22 19:31N 46°30' W 001°47'0 0.3
2018-Feb-22 19:01N 46°30' W 001°47'2 4.0
2018-Feb-22 18:31N 46°28' W 001°49'510.2
2018-Feb-22 18:00N 46°27' W 001°56'510.1
2018-Feb-22 17:30N 46°25' W 002°03'510.1
2018-Feb-22 17:01N 46°24' W 002°10'7 0.7
2018-Feb-22 07:34N 46°20' W 002°19'1 4.2
2018-Feb-22 07:21N 46°19' W 002°18'4 5.6
2018-Feb-22 06:43N 46°21' W 002°14'4 9.1
2018-Feb-22 06:14N 46°23' W 002°08'3 9.2
2018-Feb-22 05:57N 46°24' W 002°04'4 9.1
2018-Feb-22 05:31N 46°25' W 001°59'5 9.1
2018-Feb-22 05:01N 46°27' W 001°53'4 9.0
2018-Feb-22 04:31N 46°29' W 001°47'1 2.0
2018-Feb-22 04:00N 46°30' W 001°47'0 0.0
2018-Feb-21 12:03N 46°30' W 001°47'0 0.0
2018-Feb-21 12:00N 46°30' W 001°47'0 0.0
2018-Feb-21 11:30N 46°30' W 001°47'0 0.0
2018-Feb-21 11:00N 46°30' W 001°47'0 0.0
2018-Feb-21 10:30N 46°30' W 001°47'0 0.0
2018-Feb-21 10:00N 46°30' W 001°47'0 0.0
2018-Feb-21 09:30N 46°30' W 001°47'0 0.0
2018-Feb-21 09:00N 46°30' W 001°47'0 0.0
2018-Feb-21 08:30N 46°30' W 001°47'0 0.0
2018-Feb-21 08:00N 46°30' W 001°47'0 0.0
2018-Feb-20 18:52N 46°30' W 001°47'0 0.3
2018-Feb-20 18:30N 46°30' W 001°47'0 0.4
2018-Feb-20 18:00N 46°30' W 001°47'0 0.0
2018-Feb-20 17:30N 46°30' W 001°47'1 1.0
2018-Feb-20 17:00N 46°29' W 001°47'4 7.9
2018-Feb-20 16:30N 46°27' W 001°52'4 8.6
2018-Feb-20 16:00N 46°25' W 001°58'4 8.7
2018-Feb-20 15:30N 46°24' W 002°04'4 8.9
2018-Feb-20 15:00N 46°23' W 002°10'4 8.8
2018-Feb-20 14:30N 46°21' W 002°16'5 0.8
2018-Feb-20 07:53N 46°16' W 002°17'6 1.2
2018-Feb-20 02:43N 46°22' W 002°17'0 0.0
2018-Feb-20 01:25N 46°22' W 002°17'4 3.0
2018-Feb-20 00:10N 46°19' W 002°16'1 3.2
2018-Feb-19 23:58N 46°19' W 002°15'1 2.8
2018-Feb-19 23:28N 46°20' W 002°15'2 3.3
2018-Feb-19 22:49N 46°22' W 002°17'2 1.8
2018-Feb-19 21:41N 46°24' W 002°18'3 1.2
2018-Feb-19 19:18N 46°26' W 002°21'3 0.8
2018-Feb-19 15:42N 46°28' W 002°22'1 3.5
2018-Feb-19 15:30N 46°28' W 002°23'3 1.3
2018-Feb-19 13:00N 46°26' W 002°20'10 0.7
2018-Feb-18 23:12N 46°17' W 002°15'1 3.3
2018-Feb-18 22:56N 46°16' W 002°15'7 0.4
2018-Feb-18 04:33N 46°18' W 002°05'0 7.1
2018-Feb-18 04:30N 46°18' W 002°05'4 7.1
2018-Feb-18 04:00N 46°20' W 002°01'4 7.0
2018-Feb-18 03:30N 46°23' W 001°57'3 6.9
2018-Feb-18 03:00N 46°25' W 001°53'3 6.7
2018-Feb-18 02:30N 46°27' W 001°50'3 6.0
2018-Feb-18 02:00N 46°30' W 001°48'0 0.6
2018-Feb-18 01:30N 46°30' W 001°47'2 3.9
2018-Feb-18 01:00N 46°28' W 001°48'4 8.9
2018-Feb-18 00:30N 46°25' W 001°53'4 8.8
2018-Feb-18 00:00N 46°23' W 001°58'4 8.6
2018-Feb-17 23:29N 46°20' W 002°03'4 8.5
2018-Feb-17 23:00N 46°18' W 002°08'4 0.1
2018-Feb-16 04:42N 46°19' W 002°02'2 8.9
2018-Feb-16 04:30N 46°20' W 002°01'4 8.8
2018-Feb-16 04:00N 46°23' W 001°56'4 8.8
2018-Feb-16 03:30N 46°26' W 001°51'4 8.3
2018-Feb-16 03:00N 46°29' W 001°47'1 1.5
2018-Feb-16 02:30N 46°30' W 001°47'0 0.3
2018-Feb-16 02:00N 46°30' W 001°47'3 6.9
2018-Feb-16 01:30N 46°27' W 001°50'5 9.2
2018-Feb-16 01:00N 46°24' W 001°55'5 9.3
2018-Feb-16 00:30N 46°21' W 001°60'13 1.3
2018-Feb-15 14:08N 46°18' W 002°18'7 0.9
2018-Feb-15 07:05N 46°21' W 002°10'1 9.1
2018-Feb-15 07:00N 46°21' W 002°09'4 9.1
2018-Feb-15 06:30N 46°23' W 002°03'5 9.1
2018-Feb-15 06:00N 46°25' W 001°57'5 9.0
2018-Feb-15 05:30N 46°27' W 001°51'4 7.2
2018-Feb-15 05:00N 46°30' W 001°48'0 0.0
2018-Feb-14 10:33N 46°30' W 001°47'0 0.1
2018-Feb-14 10:30N 46°30' W 001°47'0 0.0
2018-Feb-14 10:00N 46°30' W 001°47'0 0.0
2018-Feb-14 09:30N 46°30' W 001°47'0 0.0
2018-Feb-14 09:00N 46°30' W 001°47'0 0.0
2018-Feb-14 08:31N 46°30' W 001°47'0 0.0
2018-Feb-13 12:30N 46°30' W 001°47'0 0.1
2018-Feb-13 12:00N 46°30' W 001°47'0 0.4
2018-Feb-13 11:30N 46°30' W 001°47'0 0.0
2018-Feb-13 11:00N 46°30' W 001°47'2 3.9
2018-Feb-13 10:30N 46°28' W 001°48'4 8.5
2018-Feb-13 10:00N 46°25' W 001°52'3 7.0
2018-Feb-13 09:31N 46°23' W 001°56'4 8.3
2018-Feb-13 09:00N 46°20' W 002°00'  

Dump ship's entire track history